createdAt,value
2022-09-05T00:01:43.101Z,97337.09
2022-09-05T00:04:25.422Z,97331.78
2022-09-05T00:07:37.413Z,97325.72
2022-09-05T00:10:09.962Z,97323.88
2022-09-05T00:12:38.390Z,97325.16
2022-09-05T00:15:35.649Z,97314.03
2022-09-05T00:23:31.955Z,97308.16
2022-09-05T00:24:32.632Z,97313.91
2022-09-05T00:25:01.024Z,97307.28
2022-09-05T00:27:55.804Z,97310.19
2022-09-05T00:31:06.800Z,97316.25
2022-09-05T00:33:28.185Z,97319.94
2022-09-05T00:36:20.067Z,97322.78
2022-09-05T00:38:58.634Z,97319.59
2022-09-05T00:41:27.493Z,97319.63
2022-09-05T00:43:57.191Z,97331.25
2022-09-05T00:46:34.026Z,97320.94
2022-09-05T00:49:17.894Z,97322.66
2022-09-05T00:51:49.354Z,97334.25
2022-09-05T00:54:41.178Z,97330.00
2022-09-05T00:57:15.011Z,97327.34
2022-09-05T01:00:13.734Z,97327.63
2022-09-05T01:03:09.682Z,97325.78
2022-09-05T01:05:54.568Z,97324.72
2022-09-05T01:08:45.998Z,97325.78
2022-09-05T01:11:43.038Z,97336.28
2022-09-05T01:14:32.500Z,97335.47
2022-09-05T01:17:20.252Z,97334.84
2022-09-05T01:20:19.432Z,97331.66
2022-09-05T01:23:08.555Z,97331.34
2022-09-05T01:26:00.106Z,97333.97
2022-09-05T01:29:17.872Z,97330.31
2022-09-05T01:31:47.939Z,97335.66
2022-09-05T01:34:32.342Z,97331.34
2022-09-05T01:37:33.647Z,97319.97
2022-09-05T01:40:21.998Z,97327.34
2022-09-05T01:42:55.972Z,97327.81
2022-09-05T01:45:56.276Z,97326.78
2022-09-05T01:48:23.985Z,97330.94
2022-09-05T01:51:29.109Z,97332.50
2022-09-05T01:54:23.839Z,97336.31
2022-09-05T01:57:04.926Z,97333.69
2022-09-05T01:59:40.543Z,97331.28
2022-09-05T02:02:22.007Z,97326.72
2022-09-05T02:05:11.877Z,97334.66
2022-09-05T02:08:02.829Z,97330.13
2022-09-05T02:11:04.243Z,97329.25
2022-09-05T02:13:33.754Z,97333.19
2022-09-05T02:16:00.432Z,97332.31
2022-09-05T02:18:36.172Z,97336.00
2022-09-05T02:21:09.335Z,97335.22
2022-09-05T02:23:44.410Z,97334.41
2022-09-05T02:26:30.173Z,97330.09
2022-09-05T02:29:28.462Z,97345.34
2022-09-05T02:32:08.787Z,97336.16
2022-09-05T02:34:44.334Z,97344.34
2022-09-05T02:38:58.071Z,97328.31
2022-09-05T02:45:14.351Z,97336.72
2022-09-05T02:45:17.180Z,97331.44
2022-09-05T02:46:35.204Z,97328.50
2022-09-05T02:49:38.062Z,97331.44
2022-09-05T02:57:26.093Z,97326.91
2022-09-05T02:57:34.200Z,97330.81
2022-09-05T02:58:09.195Z,97337.66
2022-09-05T03:00:47.984Z,97335.28
2022-09-05T03:03:35.032Z,97336.00
2022-09-05T03:06:35.526Z,97345.84
2022-09-05T03:09:17.434Z,97340.47
2022-09-05T03:12:29.252Z,97342.22
2022-09-05T03:15:01.974Z,97340.94
2022-09-05T03:17:34.225Z,97343.03
2022-09-05T03:20:26.737Z,97332.63
2022-09-05T03:23:24.123Z,97340.63
2022-09-05T03:26:25.443Z,97332.63
2022-09-05T03:29:26.271Z,97338.31
2022-09-05T03:32:22.698Z,97335.28
2022-09-05T03:35:04.100Z,97335.00
2022-09-05T03:37:41.098Z,97334.72
2022-09-05T03:40:34.715Z,97339.66
2022-09-05T03:43:07.149Z,97341.16
2022-09-05T03:45:58.501Z,97328.22
2022-09-05T03:48:29.489Z,97325.25
2022-09-05T03:57:06.640Z,97325.13
2022-09-05T03:57:19.055Z,97330.72
2022-09-05T03:58:18.238Z,97331.41
2022-09-05T04:01:30.692Z,97339.56
2022-09-05T04:08:17.617Z,97324.31
2022-09-05T04:08:31.355Z,97329.97
2022-09-05T04:10:03.418Z,97323.94
2022-09-05T04:12:39.397Z,97317.28
2022-09-05T04:15:30.390Z,97322.50
2022-09-05T04:18:04.011Z,97322.66
2022-09-05T04:21:01.480Z,97322.13
2022-09-05T04:23:44.804Z,97325.50
2022-09-05T04:26:30.676Z,97324.44
2022-09-05T04:29:05.205Z,97327.16
2022-09-05T04:31:48.413Z,97332.28
2022-09-05T04:34:33.591Z,97330.56
2022-09-05T04:37:09.294Z,97342.38
2022-09-05T04:39:37.048Z,97336.91
2022-09-05T04:42:07.287Z,97341.44
2022-09-05T04:44:40.746Z,97344.56
2022-09-05T04:47:16.571Z,97349.59
2022-09-05T04:49:54.857Z,97343.31
2022-09-05T04:53:06.625Z,97346.72
2022-09-05T04:55:41.464Z,97347.53
2022-09-05T04:59:37.590Z,97348.75
2022-09-05T05:05:59.655Z,97337.75
2022-09-05T05:06:14.483Z,97350.75
2022-09-05T05:07:18.429Z,97350.94
2022-09-05T05:09:51.589Z,97363.47
2022-09-05T05:17:58.681Z,97358.06
2022-09-05T05:18:12.505Z,97355.28
2022-09-05T05:19:18.869Z,97377.09
2022-09-05T05:21:52.087Z,97372.03
2022-09-05T05:24:22.782Z,97385.41
2022-09-05T05:27:09.926Z,97382.53
2022-09-05T05:29:54.390Z,97379.19
2022-09-05T05:32:45.777Z,97380.81
2022-09-05T05:35:18.527Z,97381.78
2022-09-05T05:37:44.918Z,97391.94
2022-09-05T05:40:17.146Z,97391.97
2022-09-05T05:42:45.936Z,97393.25
2022-09-05T05:45:21.067Z,97396.19
2022-09-05T05:47:59.872Z,97392.66
2022-09-05T05:50:36.151Z,97388.03
2022-09-05T05:53:08.563Z,97379.88
2022-09-05T05:55:52.158Z,97386.31
2022-09-05T05:58:44.620Z,97373.56
2022-09-05T06:01:49.036Z,97374.09
2022-09-05T06:05:13.220Z,97380.69
2022-09-05T06:08:15.986Z,97382.44
2022-09-05T06:14:50.494Z,97387.66
2022-09-05T06:15:00.315Z,97391.75
2022-09-05T06:17:12.352Z,97396.13
2022-09-05T06:21:19.780Z,97394.88
2022-09-05T06:23:39.615Z,97389.63
2022-09-05T06:26:31.348Z,97403.50
2022-09-05T06:29:46.919Z,97394.72
2022-09-05T06:32:25.407Z,97395.59
2022-09-05T06:35:02.935Z,97387.06
2022-09-05T06:37:52.277Z,97385.41
2022-09-05T06:40:29.062Z,97394.34
2022-09-05T06:43:10.189Z,97389.97
2022-09-05T06:45:58.977Z,97384.91
2022-09-05T06:48:44.507Z,97392.78
2022-09-05T06:51:30.089Z,97384.19
2022-09-05T06:54:06.792Z,97388.53
2022-09-05T06:56:46.006Z,97390.69
2022-09-05T06:59:34.272Z,97380.13
2022-09-05T07:02:59.494Z,97386.50
2022-09-05T07:05:45.486Z,97400.34
2022-09-05T07:08:36.407Z,97393.22
2022-09-05T07:11:25.347Z,97394.09
2022-09-05T07:14:20.700Z,97398.44
2022-09-05T07:16:53.189Z,97394.16
2022-09-05T07:19:33.100Z,97398.88
2022-09-05T07:22:45.966Z,97403.31
2022-09-05T07:25:10.844Z,97395.47
2022-09-05T07:28:26.804Z,97395.97
2022-09-05T07:30:35.928Z,97392.63
2022-09-05T07:33:04.237Z,97398.66
2022-09-05T07:35:42.302Z,97402.25
2022-09-05T07:38:52.236Z,97400.66
2022-09-05T07:41:35.078Z,97402.28
2022-09-05T07:44:25.582Z,97403.59
2022-09-05T07:47:01.751Z,97398.06
2022-09-05T07:49:31.104Z,97395.06
2022-09-05T07:56:51.884Z,97395.16
2022-09-05T07:56:59.648Z,97399.69
2022-09-05T07:57:51.893Z,97398.75
2022-09-05T08:00:26.873Z,97401.38
2022-09-05T08:02:59.103Z,97402.75
2022-09-05T08:05:35.775Z,97388.88
2022-09-05T08:08:09.130Z,97391.78
2022-09-05T08:11:24.015Z,97403.59
2022-09-05T08:14:05.315Z,97384.72
2022-09-05T08:16:43.195Z,97405.47
2022-09-05T08:19:40.791Z,97398.47
2022-09-05T08:22:14.312Z,97394.78
2022-09-05T08:25:12.061Z,97391.75
2022-09-05T08:27:50.229Z,97392.09
2022-09-05T08:30:26.067Z,97384.00
2022-09-05T08:33:22.405Z,97381.06
2022-09-05T08:36:01.089Z,97397.28
2022-09-05T08:38:40.684Z,97385.38
2022-09-05T08:41:25.901Z,97389.50
2022-09-05T08:46:42.438Z,97382.53
2022-09-05T08:47:25.479Z,97380.53
2022-09-05T08:49:58.754Z,97375.41
2022-09-05T08:52:40.254Z,97379.19
2022-09-05T08:55:19.930Z,97377.38
2022-09-05T08:57:46.711Z,97376.50
2022-09-05T09:00:24.578Z,97364.81
2022-09-05T09:03:08.928Z,97368.63
2022-09-05T09:06:11.931Z,97375.78
2022-09-05T09:08:46.121Z,97360.34
2022-09-05T09:11:26.613Z,97358.31
2022-09-05T09:14:31.776Z,97368.69
2022-09-05T09:17:18.207Z,97368.13
2022-09-05T09:19:52.145Z,97370.44
2022-09-05T09:22:23.899Z,97361.81
2022-09-05T09:25:16.337Z,97355.63
2022-09-05T09:28:46.925Z,97353.56
2022-09-05T09:31:11.034Z,97345.66
2022-09-05T09:33:43.213Z,97348.16
2022-09-05T09:36:41.609Z,97355.03
2022-09-05T09:39:40.554Z,97350.56
2022-09-05T09:42:45.479Z,97356.59
2022-09-05T09:45:28.718Z,97352.50
2022-09-05T09:48:16.262Z,97361.03
2022-09-05T09:51:00.565Z,97356.25
2022-09-05T09:53:42.786Z,97351.69
2022-09-05T09:56:52.339Z,97342.44
2022-09-05T09:59:29.338Z,97339.09
2022-09-05T10:03:53.642Z,97344.81
2022-09-05T10:10:33.790Z,97341.28
2022-09-05T10:10:46.170Z,97337.91
2022-09-05T10:12:06.963Z,97339.75
2022-09-05T10:14:49.691Z,97327.56
2022-09-05T10:17:26.149Z,97326.88
2022-09-05T10:20:12.236Z,97324.06
2022-09-05T10:22:57.934Z,97330.44
2022-09-05T10:25:47.064Z,97309.72
2022-09-05T10:28:43.827Z,97323.84
2022-09-05T10:32:37.718Z,97320.06
2022-09-05T10:35:17.458Z,97313.94
2022-09-05T10:37:13.328Z,97313.72
2022-09-05T10:39:45.414Z,97308.09
2022-09-05T10:42:30.130Z,97306.97
2022-09-05T10:44:58.140Z,97306.31
2022-09-05T10:47:48.278Z,97305.41
2022-09-05T10:50:28.766Z,97301.09
2022-09-05T10:53:39.318Z,97303.84
2022-09-05T10:56:09.415Z,97305.28
2022-09-05T11:02:15.876Z,97302.53
2022-09-05T11:02:28.784Z,97310.69
2022-09-05T11:05:35.313Z,97300.84
2022-09-05T11:08:15.996Z,97297.41
2022-09-05T11:10:51.472Z,97297.13
2022-09-05T11:13:55.366Z,97288.22
2022-09-05T11:16:49.094Z,97280.03
2022-09-05T11:19:22.627Z,97275.00
2022-09-05T11:22:22.740Z,97288.19
2022-09-05T11:24:59.449Z,97281.66
2022-09-05T11:27:34.393Z,97284.78
2022-09-05T11:30:28.990Z,97279.38
2022-09-05T11:37:56.222Z,97284.44
2022-09-05T11:39:52.237Z,97274.16
2022-09-05T11:40:00.587Z,97276.75
2022-09-05T11:42:18.115Z,97273.16
2022-09-05T11:45:13.838Z,97271.84
2022-09-05T11:48:05.133Z,97277.25
2022-09-05T11:50:53.373Z,97270.22
2022-09-05T11:53:38.487Z,97262.44
2022-09-05T11:56:26.724Z,97267.22
2022-09-05T11:59:33.736Z,97274.91
2022-09-05T12:02:24.176Z,97266.91
2022-09-05T12:05:49.848Z,97269.13
2022-09-05T12:08:36.680Z,97262.13
2022-09-05T12:11:25.843Z,97259.03
2022-09-05T12:14:20.884Z,97259.44
2022-09-05T12:17:10.117Z,97254.63
2022-09-05T12:20:17.241Z,97253.94
2022-09-05T12:23:05.325Z,97255.09
2022-09-05T12:27:39.057Z,97253.03
2022-09-05T12:29:32.587Z,97254.69
2022-09-05T12:32:19.607Z,97258.88
2022-09-05T12:36:04.977Z,97248.94
2022-09-05T12:40:38.345Z,97237.59
2022-09-05T12:41:44.996Z,97237.59
2022-09-05T12:44:41.591Z,97235.75
2022-09-05T12:47:16.848Z,97219.09
2022-09-05T12:50:02.743Z,97216.69
2022-09-05T12:52:31.536Z,97220.59
2022-09-05T12:55:04.949Z,97231.50
2022-09-05T13:00:39.753Z,97216.09
2022-09-05T13:03:07.316Z,97230.38
2022-09-05T13:03:29.799Z,97222.69
2022-09-05T13:06:25.681Z,97221.56
2022-09-05T13:09:00.585Z,97215.19
2022-09-05T13:14:50.602Z,97222.81
2022-09-05T13:14:55.595Z,97211.00
2022-09-05T13:17:15.562Z,97204.50
2022-09-05T13:19:47.393Z,97203.91
2022-09-05T13:22:18.661Z,97210.84
2022-09-05T13:24:50.454Z,97201.69
2022-09-05T13:27:33.236Z,97203.44
2022-09-05T13:31:26.175Z,97203.59
2022-09-05T13:37:59.038Z,97195.28
2022-09-05T13:38:04.622Z,97194.19
2022-09-05T13:39:03.482Z,97182.66
2022-09-05T13:41:35.077Z,97178.34
2022-09-05T13:44:25.112Z,97174.25
2022-09-05T13:47:01.993Z,97189.41
2022-09-05T13:49:44.792Z,97172.66
2022-09-05T13:52:38.655Z,97178.19
2022-09-05T13:55:20.947Z,97175.41
2022-09-05T13:58:07.554Z,97183.38
2022-09-05T14:00:39.904Z,97173.47
2022-09-05T14:06:24.896Z,97167.72
2022-09-05T14:12:11.536Z,97164.56
2022-09-05T14:18:01.715Z,97162.25
2022-09-05T14:21:10.580Z,97160.84
2022-09-05T14:23:43.350Z,97147.03
2022-09-05T14:26:19.795Z,97149.72
2022-09-05T14:29:18.494Z,97150.91
2022-09-05T14:37:41.813Z,97143.16
2022-09-05T14:37:44.362Z,97140.97
2022-09-05T14:38:21.995Z,97125.19
2022-09-05T14:41:23.362Z,97133.38
2022-09-05T14:44:05.638Z,97137.06
2022-09-05T14:46:54.851Z,97124.44
2022-09-05T14:49:30.271Z,97132.94
2022-09-05T14:51:58.355Z,97119.53
2022-09-05T15:02:39.668Z,97130.81
2022-09-05T15:02:48.386Z,97112.00
2022-09-05T15:03:09.342Z,97124.19
2022-09-05T15:05:45.555Z,97126.09
2022-09-05T15:10:06.461Z,97126.44
2022-09-05T15:12:24.408Z,97119.13
2022-09-05T15:14:07.655Z,97120.78
2022-09-05T15:16:38.592Z,97117.91
2022-09-05T15:19:08.714Z,97110.19
2022-09-05T15:21:38.251Z,97108.41
2022-09-05T15:24:23.807Z,97106.63
2022-09-05T15:26:56.223Z,97100.09
2022-09-05T15:29:27.899Z,97103.69
2022-09-05T15:32:17.397Z,97096.63
2022-09-05T15:34:44.009Z,97109.44
2022-09-05T15:37:31.032Z,97103.88
2022-09-05T15:40:23.422Z,97097.28
2022-09-05T15:43:02.328Z,97097.09
2022-09-05T15:45:32.554Z,97091.38
2022-09-05T15:48:14.896Z,97091.84
2022-09-05T15:50:50.183Z,97091.63
2022-09-05T15:53:34.152Z,97087.03
2022-09-05T15:56:09.737Z,97095.56
2022-09-05T15:58:53.472Z,97081.22
2022-09-05T16:01:59.057Z,97088.16
2022-09-05T16:08:54.223Z,97092.41
2022-09-05T16:10:40.813Z,97095.88
2022-09-05T16:10:46.664Z,97097.25
2022-09-05T16:13:12.243Z,97089.69
2022-09-05T16:17:57.691Z,97078.81
2022-09-05T16:23:25.851Z,97072.00
2022-09-05T16:23:29.888Z,97073.25
2022-09-05T16:24:24.714Z,97076.09
2022-09-05T16:27:03.558Z,97074.81
2022-09-05T16:29:38.241Z,97071.78
2022-09-05T16:32:15.320Z,97079.03
2022-09-05T16:34:54.753Z,97072.59
2022-09-05T16:37:30.181Z,97073.19
2022-09-05T16:40:05.490Z,97065.94
2022-09-05T16:42:46.052Z,97065.88
2022-09-05T16:45:29.415Z,97069.28
2022-09-05T16:48:05.145Z,97064.38
2022-09-05T16:50:54.980Z,97064.66
2022-09-05T16:53:59.001Z,97061.44
2022-09-05T16:56:34.932Z,97061.31
2022-09-05T16:59:09.622Z,97067.91
2022-09-05T17:02:05.512Z,97052.25
2022-09-05T17:05:10.660Z,97062.72
2022-09-05T17:07:59.079Z,97058.81
2022-09-05T17:10:40.766Z,97070.09
2022-09-05T17:13:12.553Z,97072.09
2022-09-05T17:15:51.559Z,97072.94
2022-09-05T17:18:25.033Z,97073.22
2022-09-05T17:21:00.669Z,97066.13
2022-09-05T17:29:15.903Z,97029.78
2022-09-05T17:29:24.825Z,97064.50
2022-09-05T17:32:47.107Z,97061.56
2022-09-05T17:35:17.484Z,97067.16
2022-09-05T17:38:14.824Z,97061.53
2022-09-05T17:41:03.947Z,97059.06
2022-09-05T17:43:35.338Z,97065.97
2022-09-05T17:46:24.201Z,97061.75
2022-09-05T17:49:17.779Z,97067.00
2022-09-05T17:51:51.522Z,97068.41
2022-09-05T17:54:30.542Z,97063.22
2022-09-05T17:57:29.326Z,97072.94
2022-09-05T18:00:00.105Z,97066.78
2022-09-05T18:02:32.714Z,97063.06
2022-09-05T18:05:01.234Z,97069.88
2022-09-05T18:07:31.031Z,97080.50
2022-09-05T18:10:12.273Z,97070.69
2022-09-05T18:13:31.575Z,97069.66
2022-09-05T18:15:35.694Z,97076.63
2022-09-05T18:18:05.255Z,97084.56
2022-09-05T18:21:21.248Z,97092.16
2022-09-05T18:23:54.281Z,97083.59
2022-09-05T18:26:24.398Z,97088.28
2022-09-05T18:32:54.169Z,97106.47
2022-09-05T18:35:47.982Z,97097.50
2022-09-05T18:38:27.448Z,97094.97
2022-09-05T18:41:13.431Z,97090.34
2022-09-05T18:44:14.120Z,97099.06
2022-09-05T18:46:42.980Z,97094.66
2022-09-05T18:49:58.916Z,97097.88
2022-09-05T18:52:07.613Z,97091.59
2022-09-05T18:54:36.122Z,97096.13
2022-09-05T18:57:28.517Z,97099.94
2022-09-05T19:00:09.415Z,97106.66
2022-09-05T19:02:58.768Z,97091.06
2022-09-05T19:05:47.045Z,97104.94
2022-09-05T19:08:29.221Z,97112.94
2022-09-05T19:11:01.449Z,97096.03
2022-09-05T19:13:49.034Z,97109.63
2022-09-05T19:16:47.403Z,97114.72
2022-09-05T19:19:24.518Z,97115.03
2022-09-05T19:22:37.261Z,97118.22
2022-09-05T19:24:46.340Z,97117.41
2022-09-05T19:28:58.415Z,97114.03
2022-09-05T19:36:44.679Z,97120.00
2022-09-05T19:36:59.345Z,97113.94
2022-09-05T19:37:13.585Z,97120.00
2022-09-05T19:38:32.969Z,97111.34
2022-09-05T19:47:26.084Z,97112.97
2022-09-05T19:47:39.461Z,97121.78
2022-09-05T19:47:45.336Z,97118.09
2022-09-05T19:50:07.323Z,97107.25
2022-09-05T19:52:37.934Z,97110.44
2022-09-05T19:55:22.435Z,97111.81
2022-09-05T19:58:19.438Z,97103.59
2022-09-05T20:00:39.903Z,97100.44
2022-09-05T20:03:06.628Z,97102.53
2022-09-05T20:05:37.628Z,97104.44
2022-09-05T20:08:07.181Z,97105.53
2022-09-05T20:10:36.025Z,97099.44
2022-09-05T20:13:21.522Z,97089.84
2022-09-05T20:15:48.852Z,97090.13
2022-09-05T20:18:33.833Z,97093.63
2022-09-05T20:21:28.374Z,97100.53
2022-09-05T20:23:59.873Z,97089.41
2022-09-05T20:26:30.473Z,97091.25
2022-09-05T20:29:03.836Z,97094.97
2022-09-05T20:31:33.490Z,97099.25
2022-09-05T20:34:43.859Z,97086.78
2022-09-05T20:43:09.906Z,97091.31
2022-09-05T20:43:26.921Z,97088.66
2022-09-05T20:43:28.948Z,97080.19
2022-09-05T20:45:52.054Z,97081.53
2022-09-05T20:54:14.877Z,97079.41
2022-09-05T20:54:26.310Z,97091.09
2022-09-05T20:54:31.630Z,97093.75
2022-09-05T20:56:56.660Z,97081.03
2022-09-05T20:59:37.824Z,97085.78
2022-09-05T21:02:19.608Z,97089.75
2022-09-05T21:05:06.864Z,97097.72
2022-09-05T21:07:59.241Z,97095.31
2022-09-05T21:10:34.153Z,97089.78
2022-09-05T21:13:37.130Z,97096.41
2022-09-05T21:16:19.058Z,97100.91
2022-09-05T21:18:45.612Z,97096.94
2022-09-05T21:21:29.633Z,97097.69
2022-09-05T21:24:15.912Z,97105.41
2022-09-05T21:26:46.235Z,97091.88
2022-09-05T21:29:12.766Z,97103.00
2022-09-05T21:31:54.315Z,97107.25
2022-09-05T21:34:24.686Z,97112.03
2022-09-05T21:37:03.911Z,97105.94
2022-09-05T21:39:38.218Z,97107.78
2022-09-05T21:42:26.992Z,97100.84
2022-09-05T21:47:43.654Z,97102.16
2022-09-05T21:47:52.247Z,97107.47
2022-09-05T21:50:30.556Z,97107.78
2022-09-05T21:55:09.320Z,97110.66
2022-09-05T21:59:17.323Z,97110.88
2022-09-05T21:59:17.642Z,97110.38
2022-09-05T22:03:05.714Z,97106.63
2022-09-05T22:05:45.467Z,97110.88
2022-09-05T22:08:13.275Z,97105.53
2022-09-05T22:10:51.609Z,97106.34
2022-09-05T22:13:18.638Z,97096.25
2022-09-05T22:15:48.400Z,97100.50
2022-09-05T22:18:17.529Z,97090.66
2022-09-05T22:20:51.789Z,97088.59
2022-09-05T22:23:36.553Z,97079.84
2022-09-05T22:26:05.318Z,97090.44
2022-09-05T22:28:34.046Z,97083.53
2022-09-05T22:31:07.524Z,97086.97
2022-09-05T22:33:34.845Z,97087.50
2022-09-05T22:36:01.550Z,97085.66
2022-09-05T22:38:28.112Z,97085.09
2022-09-05T22:40:57.572Z,97086.69
2022-09-05T22:43:25.283Z,97088.81
2022-09-05T22:45:55.967Z,97090.63
2022-09-05T22:48:23.211Z,97079.44
2022-09-05T22:50:49.862Z,97097.94
2022-09-05T22:53:16.422Z,97092.66
2022-09-05T22:55:43.611Z,97088.94
2022-09-05T22:58:13.357Z,97085.78
2022-09-05T23:00:41.799Z,97080.00
2022-09-05T23:03:08.359Z,97083.41
2022-09-05T23:05:34.992Z,97074.91
2022-09-05T23:08:02.689Z,97075.41
2022-09-05T23:10:30.347Z,97078.34
2022-09-05T23:12:57.160Z,97076.22
2022-09-05T23:15:24.290Z,97075.69
2022-09-05T23:17:56.105Z,97066.38
2022-09-05T23:20:24.342Z,97066.13
2022-09-05T23:22:50.995Z,97058.78
2022-09-05T23:25:17.602Z,97063.78
2022-09-05T23:27:44.935Z,97060.88
2022-09-05T23:30:11.961Z,97055.84
2022-09-05T23:32:47.619Z,97062.16
2022-09-05T23:35:15.132Z,97054.44
2022-09-05T23:37:43.713Z,97072.22
2022-09-05T23:40:19.998Z,97060.53
2022-09-05T23:42:57.799Z,97079.63
2022-09-05T23:45:25.368Z,97069.75
2022-09-05T23:47:52.443Z,97077.97
2022-09-05T23:50:19.358Z,97072.69
2022-09-05T23:52:46.616Z,97068.66
2022-09-05T23:55:15.784Z,97058.31
2022-09-05T23:57:43.195Z,97054.56
